Hartland Point — ZIQS6 — position and weather

sailwx.info

Track history (hours):
 
Tides and Currents Weather Stations Pressure Air Temp Water Temp Dewpoint Dewpoint Depression Visibility Wind Speed Wind Dir Waves Ship Positions

Hartland Point

Last reported at 2015-Jul-21 17:19 UTC. Time now 2015-Aug-01 11:46 UTC.
Position N 30°56' E 032°19'.
Warning: this ship's position is 10 days out of date.

Length 193 m; draft 5.7 m.

Type: Ship. MMSI: 235505000.

Date/timePositionNaut miles runAvg speedWind from/ knotsBaromVisibWave heightAir tempDewpointWater temp
2015-Jul-21 17:19N 30°56' E 032°19'7 9.2
2015-Jul-21 16:33N 31°03' E 032°19'9 9.5
2015-Jul-21 15:33N 31°12' E 032°20'8 8.4
2015-Jul-21 14:33N 31°21' E 032°23'5 5.3
2015-Jul-21 13:33N 31°25' E 032°19'2 2.1
2015-Jul-21 12:22N 31°24' E 032°17'0 0.0
2015-Jul-20 20:24N 31°24' E 032°17'0 0.0
2015-Jul-20 19:30N 31°24' E 032°17'0 0.0
2015-Jul-20 18:33N 31°24' E 032°17'0 0.0
2015-Jul-20 17:29N 31°24' E 032°17'0 0.0
2015-Jul-20 16:32N 31°24' E 032°17'0 0.0
2015-Jul-20 15:31N 31°24' E 032°17'0 0.0
2015-Jul-20 14:31N 31°24' E 032°17'0 0.0
2015-Jul-20 13:33N 31°24' E 032°17'2 2.1
2015-Jul-20 12:33N 31°26' E 032°16'1312.9
2015-Jul-20 11:33N 31°37' E 032°25'1312.8
2015-Jul-20 10:33N 31°46' E 032°36'1414.3
2015-Jul-20 09:33N 32°00' E 032°39'5 5.1
2015-Jul-20 08:33N 31°56' E 032°36'5 4.9
2015-Jul-20 07:33N 31°60' E 032°39'4 4.3
2015-Jul-20 06:32N 31°56' E 032°36'4 4.4
2015-Jul-20 05:34N 31°60' E 032°38'5814.4
2015-Jul-20 01:33N 32°57' E 032°50'1514.6
2015-Jul-20 00:33N 33°11' E 032°53'1514.7
2015-Jul-19 23:34N 33°26' E 032°56'1514.7
2015-Jul-19 22:34N 33°40' E 032°58'1514.6
2015-Jul-19 21:34N 33°55' E 033°01'1414.1
2015-Jul-19 20:34N 34°08' E 033°05'1414.0
2015-Jul-19 19:33N 34°22' E 033°08'1313.4
2015-Jul-19 18:33N 34°35' E 033°07'6 6.3
2015-Jul-19 17:33N 34°39' E 033°01'0 0.0
2015-Jul-19 16:33N 34°39' E 033°01'0 0.0
2015-Jul-19 15:32N 34°39' E 033°01'0 0.0
2015-Jul-19 14:32N 34°39' E 033°01'0 0.2
2015-Jul-19 13:33N 34°39' E 033°01'4 4.2
2015-Jul-19 12:34N 34°36' E 033°05'1514.6
2015-Jul-19 11:34N 34°29' E 032°50'6 5.9
2015-Jul-19 10:33N 34°28' E 032°43'3 3.0
2015-Jul-19 09:33N 34°30' E 032°41'1515.3
2015-Jul-19 08:33N 34°31' E 032°22'1515.2
2015-Jul-19 07:33N 34°31' E 032°04'1515.3
2015-Jul-19 06:33N 34°31' E 031°45'1515.3
2015-Jul-19 05:33N 34°32' E 031°27'13915.3
2015-Jul-18 20:32N 34°35' E 028°39'1515.4
2015-Jul-18 19:33N 34°35' E 028°20'3115.4
2015-Jul-18 17:32N 34°36' E 027°42'35016.5
2015-Jul-17 20:18N 35°18' E 020°39'1617.7
2015-Jul-17 19:25N 35°21' E 020°20'3617.5
2015-Jul-17 17:23N 35°28' E 019°37'1917.6
2015-Jul-17 16:20N 35°33' E 019°15'1717.7
2015-Jul-17 15:22N 35°37' E 018°54'1417.9
2015-Jul-17 14:33N 35°40' E 018°37'3618.1
2015-Jul-17 12:33N 35°48' E 017°54'5117.0
2015-Jul-17 09:33N 35°60' E 016°52'1916.6
2015-Jul-17 08:25N 36°04' E 016°29'1616.7
2015-Jul-17 07:28N 36°07' E 016°10'1718.5
2015-Jul-17 06:33N 36°11' E 015°50'1616.3
2015-Jul-17 05:33N 36°15' E 015°30'1616.2
2015-Jul-17 04:33N 36°18' E 015°11'1616.5
2015-Jul-17 03:33N 36°22' E 014°51'1716.8
2015-Jul-17 02:33N 36°26' E 014°31'1716.6
2015-Jul-17 01:33N 36°31' E 014°11'1616.3
2015-Jul-17 00:34N 36°35' E 013°51'1716.9
2015-Jul-16 23:34N 36°40' E 013°31'1716.7
2015-Jul-16 22:33N 36°45' E 013°11'1716.6
2015-Jul-16 21:33N 36°50' E 012°52'1716.7
2015-Jul-16 20:34N 36°55' E 012°32'1717.1
2015-Jul-16 19:34N 37°00' E 012°11'1716.5
2015-Jul-16 18:33N 37°06' E 011°52'3316.2
2015-Jul-16 16:29N 37°21' E 011°15'3216.2
2015-Jul-16 14:30N 37°30' E 010°35'1616.9
2015-Jul-16 13:32N 37°33' E 010°15'2116.7
2015-Jul-16 12:17N 37°36' E 009°49'1316.8
2015-Jul-16 11:32N 37°38' E 009°34'1616.6
2015-Jul-16 10:33N 37°41' E 009°13'1616.5
2015-Jul-16 09:33N 37°44' E 008°53'9816.3
2015-Jul-16 03:33N 37°39' E 006°49'11516.4
2015-Jul-15 20:33N 37°25' E 004°25'1816.7
2015-Jul-15 19:30N 37°21' E 004°04'1616.9
2015-Jul-15 18:33N 37°18' E 003°44'1616.5
2015-Jul-15 17:33N 37°15' E 003°24'1616.4
2015-Jul-15 16:33N 37°12' E 003°03'1616.3
2015-Jul-15 15:33N 37°09' E 002°43'1616.1
2015-Jul-15 14:33N 37°06' E 002°23'1615.7
2015-Jul-15 13:33N 37°02' E 002°04'1615.8
2015-Jul-15 12:33N 36°59' E 001°45'1616.2
2015-Jul-15 11:33N 36°56' E 001°25'1716.6
2015-Jul-15 10:33N 36°53' E 001°04'1616.6
2015-Jul-15 09:33N 36°50' E 000°44'1716.6
2015-Jul-15 08:33N 36°46' E 000°24'1616.4
2015-Jul-15 07:33N 36°43' E 000°04'1616.5
2015-Jul-15 06:33N 36°40' W 000°16'1616.4
2015-Jul-15 05:33N 36°37' W 000°36'1716.6
2015-Jul-15 04:34N 36°34' W 000°57'1616.3
2015-Jul-15 03:34N 36°30' W 001°17'1616.4
2015-Jul-15 02:34N 36°27' W 001°37'1616.4
2015-Jul-15 01:34N 36°24' W 001°57'1716.3
2015-Jul-15 00:33N 36°21' W 002°17'1616.3
2015-Jul-14 23:33N 36°19' W 002°37'1616.3
2015-Jul-14 22:33N 36°16' W 002°56'1616.5
2015-Jul-14 21:33N 36°13' W 003°17'101 6.5
2015-Jul-14 06:04N 36°08' W 005°22'0 0.3
2015-Jul-14 05:32N 36°08' W 005°22'9 9.5
2015-Jul-14 04:33N 35°59' W 005°22'2016.5
2015-Jul-14 03:19N 35°54' W 005°47'1316.4
2015-Jul-14 02:31N 35°54' W 006°03'1616.3
2015-Jul-14 01:33N 35°54' W 006°22'1615.7
2015-Jul-14 00:33N 35°54' W 006°42'1515.2
2015-Jul-13 23:32N 35°58' W 007°00'1414.8
2015-Jul-13 22:33N 36°02' W 007°17'1514.6
2015-Jul-13 21:33N 36°09' W 007°33'1514.7
2015-Jul-13 20:33N 36°17' W 007°49'1212.1
2015-Jul-13 19:33N 36°21' W 008°03'1413.9
2015-Jul-13 18:33N 36°15' W 007°48'1110.9
2015-Jul-13 17:33N 36°15' W 008°01'1514.6
2015-Jul-13 16:33N 36°19' W 008°18'1514.7
2015-Jul-13 15:33N 36°23' W 008°36'1414.3
2015-Jul-13 14:33N 36°28' W 008°53'1414.0
2015-Jul-13 13:34N 36°32' W 009°10'1414.0
2015-Jul-13 12:33N 36°40' W 009°24'1514.6
2015-Jul-13 11:33N 36°51' W 009°35'1514.7
2015-Jul-13 10:34N 37°05' W 009°40'1514.9
2015-Jul-13 09:33N 37°20' W 009°44'1514.7
2015-Jul-13 08:33N 37°34' W 009°48'1514.7
2015-Jul-13 07:33N 37°49' W 009°52'1514.7
2015-Jul-13 06:33N 38°03' W 009°55'1514.7
2015-Jul-13 05:33N 38°17' W 009°60'1514.7
2015-Jul-13 04:33N 38°32' W 010°04'1414.1
2015-Jul-13 03:33N 38°46' W 010°06'1514.8
2015-Jul-13 02:33N 39°01' W 010°06'1514.8
2015-Jul-13 01:33N 39°15' W 010°07'1514.6
2015-Jul-13 00:29N 39°31' W 010°06'1414.8
2015-Jul-12 23:32N 39°45' W 010°07'2612.3
2015-Jul-12 21:24N 39°50' W 010°40'8 7.6
2015-Jul-12 20:24N 39°53' W 010°31'1314.2
2015-Jul-12 19:27N 39°53' W 010°13'1010.9
2015-Jul-12 18:33N 40°01' W 010°06'1515.0
2015-Jul-12 17:33N 40°16' W 010°06'12 2.2
2015-Jul-12 12:15N 40°27' W 010°00'811.6
2015-Jul-12 11:32N 40°19' W 010°05'  
Track history (hours):
 
Tides and Currents Weather Stations Pressure Air Temp Water Temp Dewpoint Dewpoint Depression Visibility Wind Speed Wind Dir Waves Ship Positions

Hartland Point

Last reported at 2015-Jul-21 17:19 UTC. Time now 2015-Aug-01 11:46 UTC.
Position N 30°56' E 032°19'.
Warning: this ship's position is 10 days out of date.

Length 193 m; draft 5.7 m.

Type: Ship. MMSI: 235505000.

Date/timePositionNaut miles runAvg speedWind from/ knotsBaromVisibWave heightAir tempDewpointWater temp
2015-Jul-21 17:19N 30°56' E 032°19'7 9.2
2015-Jul-21 16:33N 31°03' E 032°19'9 9.5
2015-Jul-21 15:33N 31°12' E 032°20'8 8.4
2015-Jul-21 14:33N 31°21' E 032°23'5 5.3
2015-Jul-21 13:33N 31°25' E 032°19'2 2.1
2015-Jul-21 12:22N 31°24' E 032°17'0 0.0
2015-Jul-20 20:24N 31°24' E 032°17'0 0.0
2015-Jul-20 19:30N 31°24' E 032°17'0 0.0
2015-Jul-20 18:33N 31°24' E 032°17'0 0.0
2015-Jul-20 17:29N 31°24' E 032°17'0 0.0
2015-Jul-20 16:32N 31°24' E 032°17'0 0.0
2015-Jul-20 15:31N 31°24' E 032°17'0 0.0
2015-Jul-20 14:31N 31°24' E 032°17'0 0.0
2015-Jul-20 13:33N 31°24' E 032°17'2 2.1
2015-Jul-20 12:33N 31°26' E 032°16'1312.9
2015-Jul-20 11:33N 31°37' E 032°25'1312.8
2015-Jul-20 10:33N 31°46' E 032°36'1414.3
2015-Jul-20 09:33N 32°00' E 032°39'5 5.1
2015-Jul-20 08:33N 31°56' E 032°36'5 4.9
2015-Jul-20 07:33N 31°60' E 032°39'4 4.3
2015-Jul-20 06:32N 31°56' E 032°36'4 4.4
2015-Jul-20 05:34N 31°60' E 032°38'5814.4
2015-Jul-20 01:33N 32°57' E 032°50'1514.6
2015-Jul-20 00:33N 33°11' E 032°53'1514.7
2015-Jul-19 23:34N 33°26' E 032°56'1514.7
2015-Jul-19 22:34N 33°40' E 032°58'1514.6
2015-Jul-19 21:34N 33°55' E 033°01'1414.1
2015-Jul-19 20:34N 34°08' E 033°05'1414.0
2015-Jul-19 19:33N 34°22' E 033°08'1313.4
2015-Jul-19 18:33N 34°35' E 033°07'6 6.3
2015-Jul-19 17:33N 34°39' E 033°01'0 0.0
2015-Jul-19 16:33N 34°39' E 033°01'0 0.0
2015-Jul-19 15:32N 34°39' E 033°01'0 0.0
2015-Jul-19 14:32N 34°39' E 033°01'0 0.2
2015-Jul-19 13:33N 34°39' E 033°01'4 4.2
2015-Jul-19 12:34N 34°36' E 033°05'1514.6
2015-Jul-19 11:34N 34°29' E 032°50'6 5.9
2015-Jul-19 10:33N 34°28' E 032°43'3 3.0
2015-Jul-19 09:33N 34°30' E 032°41'1515.3
2015-Jul-19 08:33N 34°31' E 032°22'1515.2
2015-Jul-19 07:33N 34°31' E 032°04'1515.3
2015-Jul-19 06:33N 34°31' E 031°45'1515.3
2015-Jul-19 05:33N 34°32' E 031°27'13915.3
2015-Jul-18 20:32N 34°35' E 028°39'1515.4
2015-Jul-18 19:33N 34°35' E 028°20'3115.4
2015-Jul-18 17:32N 34°36' E 027°42'35016.5
2015-Jul-17 20:18N 35°18' E 020°39'1617.7
2015-Jul-17 19:25N 35°21' E 020°20'3617.5
2015-Jul-17 17:23N 35°28' E 019°37'1917.6
2015-Jul-17 16:20N 35°33' E 019°15'1717.7
2015-Jul-17 15:22N 35°37' E 018°54'1417.9
2015-Jul-17 14:33N 35°40' E 018°37'3618.1
2015-Jul-17 12:33N 35°48' E 017°54'5117.0
2015-Jul-17 09:33N 35°60' E 016°52'1916.6
2015-Jul-17 08:25N 36°04' E 016°29'1616.7
2015-Jul-17 07:28N 36°07' E 016°10'1718.5
2015-Jul-17 06:33N 36°11' E 015°50'1616.3
2015-Jul-17 05:33N 36°15' E 015°30'1616.2
2015-Jul-17 04:33N 36°18' E 015°11'1616.5
2015-Jul-17 03:33N 36°22' E 014°51'1716.8
2015-Jul-17 02:33N 36°26' E 014°31'1716.6
2015-Jul-17 01:33N 36°31' E 014°11'1616.3
2015-Jul-17 00:34N 36°35' E 013°51'1716.9
2015-Jul-16 23:34N 36°40' E 013°31'1716.7
2015-Jul-16 22:33N 36°45' E 013°11'1716.6
2015-Jul-16 21:33N 36°50' E 012°52'1716.7
2015-Jul-16 20:34N 36°55' E 012°32'1717.1
2015-Jul-16 19:34N 37°00' E 012°11'1716.5
2015-Jul-16 18:33N 37°06' E 011°52'3316.2
2015-Jul-16 16:29N 37°21' E 011°15'3216.2
2015-Jul-16 14:30N 37°30' E 010°35'1616.9
2015-Jul-16 13:32N 37°33' E 010°15'2116.7
2015-Jul-16 12:17N 37°36' E 009°49'1316.8
2015-Jul-16 11:32N 37°38' E 009°34'1616.6
2015-Jul-16 10:33N 37°41' E 009°13'1616.5
2015-Jul-16 09:33N 37°44' E 008°53'9816.3
2015-Jul-16 03:33N 37°39' E 006°49'11516.4
2015-Jul-15 20:33N 37°25' E 004°25'1816.7
2015-Jul-15 19:30N 37°21' E 004°04'1616.9
2015-Jul-15 18:33N 37°18' E 003°44'1616.5
2015-Jul-15 17:33N 37°15' E 003°24'1616.4
2015-Jul-15 16:33N 37°12' E 003°03'1616.3
2015-Jul-15 15:33N 37°09' E 002°43'1616.1
2015-Jul-15 14:33N 37°06' E 002°23'1615.7
2015-Jul-15 13:33N 37°02' E 002°04'1615.8
2015-Jul-15 12:33N 36°59' E 001°45'1616.2
2015-Jul-15 11:33N 36°56' E 001°25'1716.6
2015-Jul-15 10:33N 36°53' E 001°04'1616.6
2015-Jul-15 09:33N 36°50' E 000°44'1716.6
2015-Jul-15 08:33N 36°46' E 000°24'1616.4
2015-Jul-15 07:33N 36°43' E 000°04'1616.5
2015-Jul-15 06:33N 36°40' W 000°16'1616.4
2015-Jul-15 05:33N 36°37' W 000°36'1716.6
2015-Jul-15 04:34N 36°34' W 000°57'1616.3
2015-Jul-15 03:34N 36°30' W 001°17'1616.4
2015-Jul-15 02:34N 36°27' W 001°37'1616.4
2015-Jul-15 01:34N 36°24' W 001°57'1716.3
2015-Jul-15 00:33N 36°21' W 002°17'1616.3
2015-Jul-14 23:33N 36°19' W 002°37'1616.3
2015-Jul-14 22:33N 36°16' W 002°56'1616.5
2015-Jul-14 21:33N 36°13' W 003°17'101 6.5
2015-Jul-14 06:04N 36°08' W 005°22'0 0.3
2015-Jul-14 05:32N 36°08' W 005°22'9 9.5
2015-Jul-14 04:33N 35°59' W 005°22'2016.5
2015-Jul-14 03:19N 35°54' W 005°47'1316.4
2015-Jul-14 02:31N 35°54' W 006°03'1616.3
2015-Jul-14 01:33N 35°54' W 006°22'1615.7
2015-Jul-14 00:33N 35°54' W 006°42'1515.2
2015-Jul-13 23:32N 35°58' W 007°00'1414.8
2015-Jul-13 22:33N 36°02' W 007°17'1514.6
2015-Jul-13 21:33N 36°09' W 007°33'1514.7
2015-Jul-13 20:33N 36°17' W 007°49'1212.1
2015-Jul-13 19:33N 36°21' W 008°03'1413.9
2015-Jul-13 18:33N 36°15' W 007°48'1110.9
2015-Jul-13 17:33N 36°15' W 008°01'1514.6
2015-Jul-13 16:33N 36°19' W 008°18'1514.7
2015-Jul-13 15:33N 36°23' W 008°36'1414.3
2015-Jul-13 14:33N 36°28' W 008°53'1414.0
2015-Jul-13 13:34N 36°32' W 009°10'1414.0
2015-Jul-13 12:33N 36°40' W 009°24'1514.6
2015-Jul-13 11:33N 36°51' W 009°35'1514.7
2015-Jul-13 10:34N 37°05' W 009°40'1514.9
2015-Jul-13 09:33N 37°20' W 009°44'1514.7
2015-Jul-13 08:33N 37°34' W 009°48'1514.7
2015-Jul-13 07:33N 37°49' W 009°52'1514.7
2015-Jul-13 06:33N 38°03' W 009°55'1514.7
2015-Jul-13 05:33N 38°17' W 009°60'1514.7
2015-Jul-13 04:33N 38°32' W 010°04'1414.1
2015-Jul-13 03:33N 38°46' W 010°06'1514.8
2015-Jul-13 02:33N 39°01' W 010°06'1514.8
2015-Jul-13 01:33N 39°15' W 010°07'1514.6
2015-Jul-13 00:29N 39°31' W 010°06'1414.8
2015-Jul-12 23:32N 39°45' W 010°07'2612.3
2015-Jul-12 21:24N 39°50' W 010°40'8 7.6
2015-Jul-12 20:24N 39°53' W 010°31'1314.2
2015-Jul-12 19:27N 39°53' W 010°13'1010.9
2015-Jul-12 18:33N 40°01' W 010°06'1515.0
2015-Jul-12 17:33N 40°16' W 010°06'12 2.2
2015-Jul-12 12:15N 40°27' W 010°00'811.6
2015-Jul-12 11:32N 40°19' W 010°05'  

Dump ship's entire track history